Time;durP1;ratioP1;P1;durP2;ratioP2;P2;SDS_P1;SDS_P2;PMS_P1;PMS_P2;Temp;Humidity;BMP_temperature;BMP_pressure;BME280_temperature;BME280_humidity;BME280_pressure;Samples;Min_cycle;Max_cycle;Signal;HPM_P1;HPM_P2
2022/12/20 00:00:13;;;;;;;5.03;2.88;;;;;;;9.77;100.00;101102.38;5044354;28;20102;-72
2022/12/20 00:02:38;;;;;;;6.57;3.30;;;;;;;9.77;100.00;101098.88;5044820;28;20535;-75
2022/12/20 00:05:04;;;;;;;5.53;2.35;;;;;;;9.75;100.00;101090.06;5046243;28;20037;-73
2022/12/20 00:07:29;;;;;;;5.15;3.38;;;;;;;9.77;100.00;101099.75;5051019;28;20037;-73
2022/12/20 00:09:55;;;;;;;4.10;2.88;;;;;;;9.74;100.00;101091.81;5038923;28;20033;-74
2022/12/20 00:12:20;;;;;;;4.22;2.53;;;;;;;9.77;100.00;101091.88;5044086;28;20013;-73
2022/12/20 00:14:46;;;;;;;4.43;3.05;;;;;;;9.76;100.00;101095.34;5034955;28;20025;-74
2022/12/20 00:17:11;;;;;;;5.38;2.83;;;;;;;9.79;100.00;101092.81;5039982;28;20393;-73
2022/12/20 00:19:36;;;;;;;4.32;2.90;;;;;;;9.79;100.00;101100.69;5046990;28;20380;-74
2022/12/20 00:22:02;;;;;;;4.88;2.63;;;;;;;9.82;100.00;101088.47;5052903;28;20020;-73
2022/12/20 00:24:27;;;;;;;4.28;2.90;;;;;;;9.79;100.00;101105.94;5051063;28;20031;-73
2022/12/20 00:26:52;;;;;;;5.38;4.03;;;;;;;9.83;100.00;101092.88;5050087;28;20461;-73
2022/12/20 00:29:18;;;;;;;7.15;3.58;;;;;;;9.83;100.00;101088.50;5041467;28;20057;-72
2022/12/20 00:31:43;;;;;;;5.32;3.28;;;;;;;9.83;100.00;101085.88;5048334;28;20053;-74
2022/12/20 00:34:08;;;;;;;5.18;2.90;;;;;;;9.82;100.00;101086.75;5047154;28;20401;-73
2022/12/20 00:36:34;;;;;;;3.72;2.63;;;;;;;9.81;100.00;101090.22;5037558;28;20064;-74
2022/12/20 00:39:01;;;;;;;6.35;2.67;;;;;;;9.76;100.00;101081.31;5038927;28;20025;-73
2022/12/20 00:41:29;;;;;;;3.63;2.65;;;;;;;9.75;100.00;101077.81;5038493;28;20538;-73
2022/12/20 00:43:55;;;;;;;6.75;2.72;;;;;;;9.77;100.00;101069.97;5049556;28;20024;-74
2022/12/20 00:46:22;;;;;;;5.90;3.20;;;;;;;9.71;100.00;101081.22;5050768;28;20029;-73
2022/12/20 00:48:48;;;;;;;7.07;3.40;;;;;;;9.69;100.00;101053.13;5062154;28;20028;-72
2022/12/20 00:51:16;;;;;;;8.05;3.20;;;;;;;9.64;100.00;101060.00;5054152;28;20047;-73
2022/12/20 00:53:42;;;;;;;6.05;3.10;;;;;;;9.61;100.00;101066.06;5047310;28;20389;-74
2022/12/20 00:56:08;;;;;;;6.57;2.83;;;;;;;9.62;100.00;101052.09;5052079;28;20447;-73
2022/12/20 00:58:36;;;;;;;4.45;2.63;;;;;;;9.57;100.00;101036.22;5053459;28;20022;-74
2022/12/20 01:01:03;;;;;;;12.32;3.45;;;;;;;9.54;100.00;101040.53;5046412;28;20048;-71
2022/12/20 01:03:29;;;;;;;7.05;3.30;;;;;;;9.49;100.00;101034.25;5040752;28;20026;-74
2022/12/20 01:05:58;;;;;;;4.82;2.92;;;;;;;9.41;100.00;101027.09;5041183;28;20025;-74
2022/12/20 01:08:25;;;;;;;10.18;4.35;;;;;;;9.37;100.00;101034.84;5055978;28;20635;-73
2022/12/20 01:10:59;;;;;;;5.35;3.28;;;;;;;9.32;100.00;101028.59;5047258;28;20025;-73
2022/12/20 01:13:25;;;;;;;8.77;3.25;;;;;;;9.36;100.00;101028.72;5053854;28;20159;-72
2022/12/20 01:15:50;;;;;;;4.90;2.83;;;;;;;9.37;100.00;101041.00;5051021;28;20029;-72
2022/12/20 01:18:15;;;;;;;5.72;2.65;;;;;;;9.40;100.00;101032.28;5053503;28;20048;-73
2022/12/20 01:20:41;;;;;;;6.35;3.17;;;;;;;9.43;100.00;101035.00;5037271;28;20021;-73
2022/12/20 01:23:06;;;;;;;7.68;2.80;;;;;;;9.45;100.00;101021.06;5045638;28;20025;-73
2022/12/20 01:25:31;;;;;;;6.53;3.15;;;;;;;9.43;100.00;101020.13;5043611;28;20461;-73
2022/12/20 01:27:57;;;;;;;5.55;2.83;;;;;;;9.45;100.00;101015.81;5053509;28;20035;-74
2022/12/20 01:30:22;;;;;;;8.45;3.33;;;;;;;9.53;100.00;101001.97;5062399;28;20064;-74
2022/12/20 01:32:47;;;;;;;5.55;3.15;;;;;;;9.51;100.00;101001.03;5051241;28;20021;-73
2022/12/20 01:35:13;;;;;;;7.05;3.15;;;;;;;9.53;100.00;100997.59;5049583;28;20029;-73
2022/12/20 01:37:38;;;;;;;6.70;3.33;;;;;;;9.53;100.00;100992.31;5044548;28;20044;-73
2022/12/20 01:40:04;;;;;;;5.50;2.75;;;;;;;9.58;100.00;100987.19;5050032;28;20025;-74
2022/12/20 01:42:29;;;;;;;6.70;2.78;;;;;;;9.60;100.00;100996.91;5034804;28;20045;-72
2022/12/20 01:44:58;;;;;;;6.03;2.92;;;;;;;9.64;100.00;100987.31;5039241;28;20398;-74
2022/12/20 01:47:25;;;;;;;10.63;2.78;;;;;;;9.66;100.00;100985.63;5042776;28;20029;-74
2022/12/20 01:49:55;;;;;;;5.65;3.47;;;;;;;9.67;100.00;100984.78;5035012;28;20025;-73
2022/12/20 01:52:30;;;;;;;7.15;3.40;;;;;;;9.66;100.00;100985.63;5033194;28;20032;-73
2022/12/20 01:55:07;;;;;;;5.72;3.72;;;;;;;9.62;100.00;100984.66;5036136;28;20109;-73
2022/12/20 01:57:44;;;;;;;9.60;5.10;;;;;;;9.61;100.00;100997.78;5046100;28;20468;-74
2022/12/20 02:00:10;;;;;;;12.57;5.13;;;;;;;9.57;100.00;100981.03;5050768;28;20502;-73
2022/12/20 02:02:36;;;;;;;6.35;4.40;;;;;;;9.55;100.00;100988.00;5041565;28;20041;-74
2022/12/20 02:05:02;;;;;;;8.45;4.72;;;;;;;9.50;100.00;100984.38;5044296;28;20453;-73
2022/12/20 02:07:31;;;;;;;9.35;4.18;;;;;;;9.48;100.00;100990.44;5044663;28;20032;-74
2022/12/20 02:09:59;;;;;;;6.15;3.72;;;;;;;9.41;100.00;100985.06;5050417;28;20030;-71
2022/12/20 02:12:29;;;;;;;5.82;3.95;;;;;;;9.38;100.00;100987.59;5050255;28;20039;-74
2022/12/20 02:15:17;;;;;;;7.72;3.78;;;;;;;9.39;100.00;101006.91;5054741;28;20029;-72
2022/12/20 02:17:55;;;;;;;6.22;4.00;;;;;;;9.38;100.00;101000.72;5038437;28;20026;-73
2022/12/20 02:20:29;;;;;;;7.00;4.28;;;;;;;9.41;100.00;101000.84;5045665;28;20032;-72
2022/12/20 02:23:36;;;;;;;6.43;3.72;;;;;;;9.46;100.00;101003.56;5051526;28;20021;-73
2022/12/20 02:26:39;;;;;;;7.45;3.58;;;;;;;9.45;100.00;101001.78;5038310;28;20372;-75
2022/12/20 02:29:23;;;;;;;4.30;3.30;;;;;;;9.42;100.00;100997.31;5050516;28;20091;-73
2022/12/20 02:32:03;;;;;;;6.28;3.55;;;;;;;9.42;100.00;100985.94;5047590;28;20021;-73
2022/12/20 02:34:32;;;;;;;5.20;3.55;;;;;;;9.50;100.00;100988.75;5042655;28;20027;-74
2022/12/20 02:36:57;;;;;;;9.63;3.85;;;;;;;9.55;100.00;100989.72;5053885;28;20099;-73
2022/12/20 02:39:26;;;;;;;5.30;3.63;;;;;;;9.61;100.00;100990.75;5041448;28;20124;-74
2022/12/20 02:42:00;;;;;;;6.35;3.53;;;;;;;9.62;100.00;100983.78;5050625;28;20476;-74
2022/12/20 02:47:23;;;;;;;5.88;3.97;;;;;;;9.62;100.00;100975.91;5049579;28;20044;-73
2022/12/20 02:49:51;;;;;;;11.45;3.50;;;;;;;9.60;100.00;100969.72;5047269;28;20047;-74
2022/12/20 02:52:19;;;;;;;6.82;3.45;;;;;;;9.62;100.00;100965.41;5041086;28;20028;-73
2022/12/20 02:54:45;;;;;;;8.50;3.85;;;;;;;9.64;100.00;100962.81;5052785;28;20112;-74
2022/12/20 02:57:19;;;;;;;7.00;3.50;;;;;;;9.70;100.00;100968.16;5040543;28;20087;-74
2022/12/20 02:59:49;;;;;;;;;;;;;;;9.74;100.00;100967.38;5037985;28;20045;-72
2022/12/20 03:02:14;;;;;;;9.30;3.67;;;;;;;9.78;100.00;100967.50;5038181;28;19943;-72
2022/12/20 03:04:41;;;;;;;6.63;3.33;;;;;;;9.77;100.00;100968.34;5049612;28;20029;-74
2022/12/20 03:07:12;;;;;;;6.13;3.22;;;;;;;9.80;100.00;100978.03;5049049;28;20032;-73
2022/12/20 03:09:41;;;;;;;9.57;3.50;;;;;;;9.82;100.00;100975.44;5049505;28;20039;-74
2022/12/20 03:12:10;;;;;;;8.93;3.28;;;;;;;9.86;100.00;100967.69;5039034;28;20045;-73
2022/12/20 03:14:36;;;;;;;6.43;3.92;;;;;;;9.85;100.00;100970.25;5032713;28;20033;-73
2022/12/20 03:17:01;;;;;;;8.18;3.53;;;;;;;9.87;100.00;100964.19;5041122;28;20095;-75
2022/12/20 03:19:27;;;;;;;6.20;3.63;;;;;;;9.94;100.00;100971.34;5046426;28;20079;-73
2022/12/20 03:21:52;;;;;;;7.03;3.65;;;;;;;9.99;100.00;100968.81;5040164;28;20032;-73
2022/12/20 03:24:18;;;;;;;7.28;3.85;;;;;;;10.07;100.00;100975.13;5038628;28;20067;-72
2022/12/20 03:26:43;;;;;;;8.38;3.22;;;;;;;10.08;100.00;100974.25;5042868;28;20044;-73
2022/12/20 03:29:08;;;;;;;5.18;2.83;;;;;;;10.11;100.00;100973.44;5051263;28;20033;-73
2022/12/20 03:31:34;;;;;;;8.27;2.72;;;;;;;10.14;100.00;100952.47;5045212;28;20055;-73
2022/12/20 03:33:59;;;;;;;5.97;3.15;;;;;;;10.12;100.00;100955.06;5041630;28;20477;-73
2022/12/20 03:36:25;;;;;;;4.65;3.00;;;;;;;10.18;100.00;100963.94;5044074;28;20036;-74
2022/12/20 03:38:51;;;;;;;4.88;2.83;;;;;;;10.14;100.00;100952.47;5043823;28;20024;-74
2022/12/20 03:41:17;;;;;;;6.78;2.92;;;;;;;10.15;100.00;100963.84;5043012;28;20488;-72
2022/12/20 03:43:43;;;;;;;5.82;2.92;;;;;;;10.13;100.00;100956.84;5040535;28;20027;-72
2022/12/20 03:46:08;;;;;;;4.50;2.80;;;;;;;10.09;100.00;100954.09;5043527;28;20033;-74
2022/12/20 03:48:34;;;;;;;5.95;3.05;;;;;;;10.19;100.00;100950.81;5038759;28;20663;-73
2022/12/20 03:50:59;;;;;;;5.22;2.83;;;;;;;10.21;100.00;100949.09;5049146;28;20024;-72
2022/12/20 03:53:24;;;;;;;4.70;2.42;;;;;;;10.25;100.00;100957.94;5048603;28;20032;-73
2022/12/20 03:55:50;;;;;;;5.65;2.55;;;;;;;10.29;100.00;100999.22;5062050;28;20450;-73
2022/12/20 03:58:15;;;;;;;3.85;2.70;;;;;;;10.30;100.00;100964.19;5035406;28;20033;-73
2022/12/20 04:00:41;;;;;;;3.13;2.30;;;;;;;10.30;100.00;100964.19;5048913;28;20056;-73
2022/12/20 04:03:06;;;;;;;7.25;2.72;;;;;;;10.28;100.00;100963.25;5043066;28;20401;-72
2022/12/20 04:05:32;;;;;;;6.38;3.10;;;;;;;10.29;100.00;100944.91;5034721;28;20056;-75
2022/12/20 04:07:57;;;;;;;5.05;2.63;;;;;;;10.28;100.00;100968.50;5051484;28;20032;-74
2022/12/20 04:10:22;;;;;;;9.93;3.00;;;;;;;10.29;100.00;100960.69;5045313;28;20096;-73
2022/12/20 04:12:47;;;;;;;6.05;3.00;;;;;;;10.23;100.00;100951.78;5043688;28;20055;-73
2022/12/20 04:15:13;;;;;;;6.65;2.85;;;;;;;10.17;100.00;100951.63;5051950;28;20021;-73
2022/12/20 04:17:38;;;;;;;7.32;2.92;;;;;;;10.11;100.00;100942.75;5051671;28;20028;-74
2022/12/20 04:20:17;;;;;;;5.10;2.78;;;;;;;10.10;100.00;100930.47;5037180;28;20461;-73
2022/12/20 04:22:47;;;;;;;5.07;3.17;;;;;;;10.07;100.00;100940.94;5038503;28;20515;-73
2022/12/20 04:25:14;;;;;;;4.65;2.80;;;;;;;10.04;100.00;100948.78;5045327;28;20391;-74
2022/12/20 04:27:39;;;;;;;4.75;2.88;;;;;;;10.02;100.00;100947.84;5040767;28;20492;-73
2022/12/20 04:30:05;;;;;;;4.75;3.15;;;;;;;10.00;100.00;100941.69;5051729;28;20036;-73
2022/12/20 04:32:31;;;;;;;4.90;3.05;;;;;;;10.00;100.00;100938.13;5038592;28;20039;-74
2022/12/20 04:34:56;;;;;;;6.35;3.30;;;;;;;10.00;100.00;100944.31;5055923;28;20025;-73
2022/12/20 04:37:21;;;;;;;5.65;3.20;;;;;;;10.03;100.00;100936.47;5057088;28;20043;-73
2022/12/20 04:39:47;;;;;;;6.55;3.42;;;;;;;10.07;100.00;100930.41;5033324;28;20033;-73
2022/12/20 04:42:12;;;;;;;7.13;3.40;;;;;;;10.01;100.00;100925.06;5045298;28;20025;-73
2022/12/20 04:44:37;;;;;;;10.60;4.10;;;;;;;9.96;100.00;100917.06;5049310;28;20021;-74
2022/12/20 04:47:03;;;;;;;6.05;3.13;;;;;;;9.93;100.00;100910.88;5041807;28;20113;-72
2022/12/20 04:49:28;;;;;;;5.38;3.50;;;;;;;9.94;100.00;100907.38;5051312;28;20036;-74
2022/12/20 04:51:53;;;;;;;4.53;3.58;;;;;;;9.92;100.00;100903.84;5050761;28;20048;-73
2022/12/20 04:54:19;;;;;;;8.60;3.65;;;;;;;9.90;100.00;100900.28;5045441;28;20068;-73
2022/12/20 04:56:44;;;;;;;7.63;3.70;;;;;;;9.83;100.00;100893.13;5040785;28;20087;-73
2022/12/20 04:59:11;;;;;;;7.82;3.45;;;;;;;9.86;100.00;100899.34;5042611;28;20032;-73
2022/12/20 05:01:36;;;;;;;5.35;2.65;;;;;;;9.89;100.00;100914.25;5045132;28;20043;-73
2022/12/20 05:04:02;;;;;;;6.75;3.10;;;;;;;9.89;100.00;100890.59;5052799;28;20099;-74
2022/12/20 05:06:27;;;;;;;7.45;3.33;;;;;;;9.92;100.00;100898.56;5048865;28;20056;-73
2022/12/20 05:08:54;;;;;;;5.55;3.03;;;;;;;9.91;100.00;100886.28;5049640;28;20681;-73
2022/12/20 05:11:19;;;;;;;8.95;3.10;;;;;;;9.92;100.00;100875.78;5052570;28;20029;-73
2022/12/20 05:13:45;;;;;;;9.18;3.13;;;;;;;9.96;100.00;100879.38;5053578;28;20415;-73
2022/12/20 05:16:10;;;;;;;5.55;3.00;;;;;;;10.00;100.00;100886.47;5034464;28;20108;-73
2022/12/20 05:18:35;;;;;;;7.35;2.88;;;;;;;9.99;100.00;100882.06;5050776;28;20024;-73
2022/12/20 05:26:35;;;;;;;5.47;2.75;;;;;;;10.10;100.00;100877.88;5038768;28;20037;-73
2022/12/20 05:29:00;;;;;;;5.88;3.13;;;;;;;10.12;100.00;100889.34;5038380;28;20529;-74
2022/12/20 05:31:26;;;;;;;6.97;3.03;;;;;;;10.12;100.00;100868.28;5051995;28;20131;-72
2022/12/20 05:33:53;;;;;;;5.10;2.90;;;;;;;10.17;100.00;100867.50;5035205;28;20038;-73
2022/12/20 05:36:19;;;;;;;6.05;2.55;;;;;;;10.15;100.00;100864.84;5036834;28;20786;-72
2022/12/20 05:38:46;;;;;;;6.50;3.10;;;;;;;10.16;100.00;100876.22;5052738;28;20025;-73
2022/12/20 05:41:11;;;;;;;5.63;3.10;;;;;;;10.13;100.00;100871.81;5052475;28;20033;-74
2022/12/20 05:43:36;;;;;;;5.90;2.85;;;;;;;10.15;100.00;100862.22;5044499;28;21116;-74
2022/12/20 05:46:02;;;;;;;4.93;3.15;;;;;;;10.11;100.00;100869.16;5048376;28;20025;-74
2022/12/20 05:48:28;;;;;;;7.60;3.13;;;;;;;10.10;100.00;100859.47;5052601;28;20029;-74
2022/12/20 05:50:53;;;;;;;8.75;3.00;;;;;;;10.08;100.00;100850.69;5052606;28;20025;-73
2022/12/20 05:53:18;;;;;;;3.92;2.60;;;;;;;10.08;100.00;100850.69;5047836;28;20025;-73
2022/12/20 05:55:47;;;;;;;8.88;3.45;;;;;;;10.12;100.00;100849.88;5044264;28;20066;-72
2022/12/20 05:58:13;;;;;;;6.53;3.55;;;;;;;10.15;100.00;100853.41;5044447;28;20053;-73
2022/12/20 06:00:42;;;;;;;4.40;3.30;;;;;;;10.26;100.00;100857.16;5048121;28;20447;-72
2022/12/20 06:03:10;;;;;;;6.72;3.17;;;;;;;10.33;100.00;100853.75;5050555;28;20033;-73
2022/12/20 06:05:37;;;;;;;6.35;3.08;;;;;;;10.31;100.00;100850.22;5058911;28;20112;-74
2022/12/20 06:08:06;;;;;;;5.78;3.25;;;;;;;10.38;100.00;100849.50;5037229;28;20021;-73
2022/12/20 06:10:33;;;;;;;13.15;3.60;;;;;;;10.48;100.00;100847.91;5052421;28;20079;-73
2022/12/20 06:12:59;;;;;;;9.13;3.30;;;;;;;10.51;100.00;100847.09;5046736;28;20075;-73
2022/12/20 06:15:24;;;;;;;7.15;2.58;;;;;;;10.50;100.00;100850.56;5050568;28;20111;-74
2022/12/20 06:17:50;;;;;;;13.15;3.40;;;;;;;10.53;100.00;100848.00;5050105;28;20119;-74
2022/12/20 06:20:15;;;;;;;3.42;2.78;;;;;;;10.53;100.00;100845.38;5045256;28;20028;-71
2022/12/20 06:22:41;;;;;;;4.75;2.88;;;;;;;10.48;100.00;100853.19;5049074;28;20820;-73
2022/12/20 06:25:08;;;;;;;6.28;3.17;;;;;;;10.52;100.00;100851.50;5049655;28;20021;-72
2022/12/20 06:27:34;;;;;;;4.70;3.17;;;;;;;10.50;100.00;100850.56;5042462;28;20095;-75
2022/12/20 06:30:00;;;;;;;6.57;3.00;;;;;;;10.48;100.00;100852.31;5056310;28;20024;-73
2022/12/20 06:32:25;;;;;;;4.13;2.80;;;;;;;10.52;100.00;100851.50;5050661;28;20071;-75
2022/12/20 06:34:51;;;;;;;4.30;2.55;;;;;;;10.54;100.00;100849.75;5047333;28;20016;-73
2022/12/20 06:37:16;;;;;;;4.43;2.92;;;;;;;10.53;100.00;100861.16;5046211;28;20078;-74
2022/12/20 06:39:42;;;;;;;4.53;2.80;;;;;;;10.51;100.00;100853.22;5057219;28;20013;-73
2022/12/20 06:42:07;;;;;;;3.85;2.70;;;;;;;10.50;100.00;100850.56;5061673;28;20058;-73
2022/12/20 06:44:33;;;;;;;5.45;3.00;;;;;;;10.49;100.00;100849.69;5056052;28;20021;-74
2022/12/20 06:46:58;;;;;;;4.70;3.05;;;;;;;10.52;100.00;100839.22;5048120;28;20468;-73
2022/12/20 06:49:23;;;;;;;5.20;3.15;;;;;;;10.51;100.00;100847.09;5051975;28;20112;-75
2022/12/20 06:51:49;;;;;;;8.63;3.00;;;;;;;10.46;100.00;100850.53;5044271;28;20054;-74
2022/12/20 06:54:14;;;;;;;6.38;2.80;;;;;;;10.49;100.00;100848.81;5048840;28;20025;-78
2022/12/20 06:56:39;;;;;;;5.22;2.75;;;;;;;10.49;100.00;100854.94;5050300;28;20028;-75
2022/12/20 06:59:05;;;;;;;5.65;2.70;;;;;;;10.49;100.00;100849.69;5052722;28;20033;-76
2022/12/20 07:01:31;;;;;;;6.00;2.28;;;;;;;10.58;100.00;100851.56;5049374;28;20029;-77
2022/12/20 07:03:56;;;;;;;7.70;2.65;;;;;;;10.60;100.00;100856.00;5041552;28;20033;-74
2022/12/20 07:06:22;;;;;;;7.75;3.13;;;;;;;10.66;100.00;100851.72;5039753;28;20493;-75
2022/12/20 07:08:49;;;;;;;7.05;3.88;;;;;;;10.67;100.00;100864.88;5047004;28;20090;-72
2022/12/20 07:11:14;;;;;;;6.80;2.40;;;;;;;10.70;100.00;100864.06;5047151;28;20040;-73
2022/12/20 07:13:40;;;;;;;7.55;2.90;;;;;;;10.69;100.00;100860.56;5047912;28;20029;-75
2022/12/20 07:16:05;;;;;;;4.85;2.40;;;;;;;10.71;100.00;100866.72;5046049;28;20029;-74
2022/12/20 07:18:31;;;;;;;9.35;2.70;;;;;;;10.74;100.00;100860.63;5048182;28;20066;-75
2022/12/20 07:21:01;;;;;;;5.70;2.70;;;;;;;10.72;100.00;100863.22;5042514;28;20032;-75
2022/12/20 07:23:27;;;;;;;6.65;2.78;;;;;;;10.75;100.00;100860.63;5046226;28;20029;-72
2022/12/20 07:25:54;;;;;;;8.23;3.40;;;;;;;10.77;100.00;100869.47;5048570;28;20366;-73
2022/12/20 07:28:19;;;;;;;5.10;2.45;;;;;;;10.75;100.00;100858.00;5044896;28;20029;-71
2022/12/20 07:30:45;;;;;;;8.70;2.88;;;;;;;10.71;100.00;100858.81;5045676;28;20554;-72
2022/12/20 07:33:10;;;;;;;4.38;2.13;;;;;;;10.60;100.00;100856.00;5047161;28;20028;-72
2022/12/20 07:35:35;;;;;;;8.73;3.20;;;;;;;10.55;100.00;100848.91;5047446;28;20350;-72
2022/12/20 07:38:01;;;;;;;5.20;2.63;;;;;;;10.46;100.00;100866.31;5044271;28;20116;-74
2022/12/20 07:40:26;;;;;;;4.78;3.92;;;;;;;10.39;100.00;100847.75;5043799;28;20021;-72
2022/12/20 07:42:52;;;;;;;7.43;3.35;;;;;;;10.25;100.00;100850.97;5049262;28;20033;-71
2022/12/20 07:45:17;;;;;;;5.70;3.55;;;;;;;10.20;100.00;100857.94;5051978;28;20029;-71
2022/12/20 07:47:42;;;;;;;10.13;3.50;;;;;;;10.10;100.00;100850.72;5059750;28;20542;-72
2022/12/20 07:50:08;;;;;;;9.57;3.53;;;;;;;10.05;100.00;100860.25;5051448;28;20064;-73
2022/12/20 07:52:35;;;;;;;6.88;3.33;;;;;;;10.02;100.00;100857.56;5047468;28;20060;-72
2022/12/20 07:55:03;;;;;;;14.80;3.78;;;;;;;9.93;100.00;100858.31;5052242;28;20021;-71
2022/12/20 07:57:42;;;;;;;18.90;3.67;;;;;;;9.87;100.00;100855.53;5060541;28;20072;-72
2022/12/20 08:00:08;;;;;;;9.57;3.63;;;;;;;9.80;100.00;100857.16;5049784;28;20049;-72
2022/12/20 08:03:06;;;;;;;12.50;3.58;;;;;;;9.69;100.00;100859.56;5059299;28;20056;-72
2022/12/20 08:05:33;;;;;;;10.73;3.83;;;;;;;9.57;100.00;100859.31;5054525;28;20048;-72
2022/12/20 08:08:00;;;;;;;9.15;3.75;;;;;;;9.50;100.00;100857.44;5046368;28;20028;-73
2022/12/20 08:10:27;;;;;;;9.05;3.50;;;;;;;9.50;100.00;100874.06;5048611;28;20032;-72
2022/12/20 08:12:53;;;;;;;8.90;3.22;;;;;;;9.45;100.00;100886.19;5051282;28;20037;-72
2022/12/20 08:15:21;;;;;;;7.43;3.65;;;;;;;9.39;100.00;100865.06;5049880;28;20032;-72
2022/12/20 08:17:47;;;;;;;12.25;3.40;;;;;;;9.39;100.00;100871.19;5049241;28;20415;-71
2022/12/20 08:20:13;;;;;;;4.57;3.00;;;;;;;9.41;100.00;100868.59;5052218;28;20535;-71
2022/12/20 08:22:39;;;;;;;6.93;2.55;;;;;;;9.38;100.00;100866.78;5031243;28;20041;-70
2022/12/20 08:25:05;;;;;;;3.58;2.35;;;;;;;9.45;100.00;100866.09;5046054;28;20017;-72
2022/12/20 08:27:30;;;;;;;5.13;2.88;;;;;;;9.48;100.00;100861.75;5038541;28;20388;-72
2022/12/20 08:29:56;;;;;;;5.93;2.78;;;;;;;9.44;100.00;100852.91;5040990;28;21675;-72
2022/12/20 08:32:21;;;;;;;9.23;2.92;;;;;;;9.48;100.00;100851.25;5048216;28;20112;-72
2022/12/20 08:34:47;;;;;;;7.05;2.60;;;;;;;9.45;100.00;100850.34;5047653;28;20354;-71
2022/12/20 08:37:15;;;;;;;6.70;2.97;;;;;;;9.51;100.00;100856.53;5037688;28;20025;-73
2022/12/20 08:39:41;;;;;;;8.68;3.42;;;;;;;9.53;100.00;100854.84;5052008;28;20587;-73
2022/12/20 08:42:06;;;;;;;4.30;2.78;;;;;;;9.54;100.00;100847.00;5045373;28;20029;-72
2022/12/20 08:44:31;;;;;;;4.40;2.72;;;;;;;9.52;100.00;100851.34;5054647;28;20099;-73
2022/12/20 08:46:57;;;;;;;5.00;2.60;;;;;;;9.61;100.00;100855.91;5052714;28;20587;-72
2022/12/20 08:49:22;;;;;;;8.77;2.92;;;;;;;9.61;100.00;100855.91;5054231;28;20025;-72
2022/12/20 08:51:48;;;;;;;3.50;2.47;;;;;;;9.68;100.00;100867.44;5048864;28;20024;-73
2022/12/20 08:54:13;;;;;;;6.07;2.50;;;;;;;9.74;100.00;100860.56;5049164;28;20528;-72
2022/12/20 08:56:38;;;;;;;2.83;2.53;;;;;;;9.77;100.00;100867.63;5052446;28;20091;-72
2022/12/20 08:59:04;;;;;;;6.50;2.38;;;;;;;9.72;100.00;100864.88;5048533;28;20082;-73
2022/12/20 09:01:32;;;;;;;10.73;2.90;;;;;;;9.71;100.00;100859.59;5049185;28;20032;-72
2022/12/20 09:03:58;;;;;;;4.57;2.85;;;;;;;9.67;100.00;100861.28;5043540;28;20021;-73
2022/12/20 09:06:23;;;;;;;6.90;2.63;;;;;;;9.67;100.00;100861.28;5055982;28;20033;-72
2022/12/20 09:08:51;;;;;;;4.78;2.45;;;;;;;9.64;100.00;100855.94;5066654;28;20045;-72
2022/12/20 09:11:19;;;;;;;6.07;2.75;;;;;;;9.61;100.00;100863.78;5051220;28;20028;-72
2022/12/20 09:13:47;;;;;;;6.93;2.90;;;;;;;9.59;100.00;100863.75;5052177;28;20056;-72
2022/12/20 09:16:15;;;;;;;5.85;2.40;;;;;;;9.59;100.00;100879.50;5052821;28;20036;-74
2022/12/20 09:18:40;;;;;;;7.53;2.90;;;;;;;9.57;100.00;100859.31;5043353;28;20032;-74
2022/12/20 09:21:07;;;;;;;6.53;3.08;;;;;;;9.55;100.00;100853.13;5051496;28;20123;-75
2022/12/20 09:23:34;;;;;;;8.73;3.22;;;;;;;9.53;100.00;100868.88;5053010;28;20472;-75
2022/12/20 09:26:05;;;;;;;5.45;2.63;;;;;;;9.53;100.00;100862.75;5050539;28;20028;-73
2022/12/20 09:28:31;;;;;;;5.25;2.80;;;;;;;9.51;100.00;100857.47;5051238;28;20036;-74
2022/12/20 09:30:59;;;;;;;11.65;2.70;;;;;;;9.52;100.00;100860.94;5051571;28;20032;-74
2022/12/20 09:33:24;;;;;;;8.30;3.00;;;;;;;9.51;100.00;100873.22;5052333;28;20028;-74
2022/12/20 09:35:50;;;;;;;5.32;2.78;;;;;;;9.50;100.00;100847.78;5052203;28;20033;-75
2022/12/20 09:38:15;;;;;;;10.32;3.22;;;;;;;9.49;100.00;100861.78;5055666;28;20444;-74
2022/12/20 09:40:46;;;;;;;6.78;3.03;;;;;;;9.50;100.00;100852.19;5049577;28;20029;-73
2022/12/20 09:43:13;;;;;;;6.60;3.13;;;;;;;9.50;100.00;100852.19;5047408;28;20035;-74
2022/12/20 09:45:38;;;;;;;3.65;2.85;;;;;;;9.53;100.00;100858.34;5053875;28;20078;-74
2022/12/20 09:48:07;;;;;;;8.45;3.35;;;;;;;9.51;100.00;100856.53;5054568;28;20030;-74
2022/12/20 09:50:45;;;;;;;9.20;2.85;;;;;;;9.51;100.00;100869.69;5050818;28;20025;-73
2022/12/20 09:53:23;;;;;;;10.38;3.53;;;;;;;9.49;100.00;100860.91;5042188;28;20552;-73
2022/12/20 09:55:48;;;;;;;9.57;3.17;;;;;;;9.50;100.00;100855.66;5053015;28;20025;-73
2022/12/20 09:58:27;;;;;;;3.75;2.47;;;;;;;9.47;100.00;100860.88;5051386;28;20431;-72
2022/12/20 10:00:52;;;;;;;7.38;2.90;;;;;;;9.45;100.00;100852.97;5076425;28;20040;-73
2022/12/20 10:03:22;;;;;;;6.38;3.05;;;;;;;9.49;100.00;100858.28;5048184;28;20025;-73
2022/12/20 10:05:52;;;;;;;6.30;4.00;;;;;;;9.46;100.00;100861.72;5050696;28;20700;-73
2022/12/20 10:08:47;;;;;;;4.30;2.95;;;;;;;9.43;100.00;100857.28;5050322;28;20040;-73
2022/12/20 10:11:56;;;;;;;4.30;2.92;;;;;;;9.39;100.00;100844.94;5048120;28;20099;-73
2022/12/20 10:14:52;;;;;;;10.52;3.38;;;;;;;9.39;100.00;100855.44;5054830;28;20028;-73
2022/12/20 10:18:00;;;;;;;9.13;3.65;;;;;;;9.38;100.00;100858.03;5037948;28;20029;-72
2022/12/20 10:21:18;;;;;;;7.90;3.70;;;;;;;9.39;100.00;100836.19;5033305;28;20033;-73
2022/12/20 10:24:17;;;;;;;4.78;3.35;;;;;;;9.38;100.00;100842.28;5065506;28;20515;-72
2022/12/20 10:26:43;;;;;;;7.43;3.00;;;;;;;9.37;100.00;100837.88;5061033;28;20048;-73
2022/12/20 10:29:08;;;;;;;6.47;2.85;;;;;;;9.36;100.00;100839.63;5050598;28;20151;-73
2022/12/20 10:31:34;;;;;;;11.77;3.63;;;;;;;9.40;100.00;100862.47;5060366;28;20016;-75
2022/12/20 10:34:00;;;;;;;7.30;3.47;;;;;;;9.43;100.00;100848.53;5060422;28;20029;-74
2022/12/20 10:36:29;;;;;;;9.27;3.88;;;;;;;9.43;100.00;100846.78;5065322;28;20058;-72
2022/12/20 10:38:57;;;;;;;8.57;3.63;;;;;;;9.43;100.00;100846.78;5051056;28;20420;-74
2022/12/20 10:41:47;;;;;;;10.93;3.47;;;;;;;9.43;100.00;100844.16;5065934;28;20025;-72
2022/12/20 10:44:24;;;;;;;8.02;4.07;;;;;;;9.47;100.00;100836.31;5047420;28;20036;-72
2022/12/20 10:46:53;;;;;;;10.68;4.53;;;;;;;9.44;100.00;100838.06;5046176;28;20033;-74
2022/12/20 10:49:36;;;;;;;10.75;3.95;;;;;;;9.42;100.00;100834.50;5058624;28;20024;-72
2022/12/20 10:52:08;;;;;;;7.40;4.47;;;;;;;9.40;100.00;100851.06;5049845;28;20041;-73
2022/12/20 10:54:35;;;;;;;6.68;3.17;;;;;;;9.37;100.00;100841.41;5053490;28;20488;-73
2022/12/20 10:57:14;;;;;;;15.00;4.40;;;;;;;9.37;100.00;100838.78;5049728;28;20017;-72
2022/12/20 10:59:43;;;;;;;13.02;4.43;;;;;;;9.39;100.00;100839.69;5048115;28;20052;-74
2022/12/20 11:02:23;;;;;;;10.75;4.10;;;;;;;9.39;100.00;100837.06;5049611;28;20032;-73
2022/12/20 11:05:02;;;;;;;7.25;3.85;;;;;;;9.42;100.00;100831.00;5053003;28;20033;-73
2022/12/20 11:07:31;;;;;;;10.75;4.40;;;;;;;9.43;100.00;100830.16;5051354;28;20029;-73
2022/12/20 11:09:59;;;;;;;8.10;4.50;;;;;;;9.41;100.00;100822.25;5054242;28;20043;-73
2022/12/20 11:12:24;;;;;;;7.95;4.60;;;;;;;9.43;100.00;100832.78;5051352;28;20021;-74
2022/12/20 11:15:08;;;;;;;9.77;4.95;;;;;;;9.44;100.00;100834.53;5052606;28;20025;-73
2022/12/20 11:17:42;;;;;;;8.45;4.43;;;;;;;9.44;100.00;100827.53;5048573;28;20466;-73
2022/12/20 11:20:24;;;;;;;12.45;5.53;;;;;;;9.45;100.00;100829.31;5049758;28;20453;-74
2022/12/20 11:23:02;;;;;;;12.85;4.30;;;;;;;9.48;100.00;100833.72;5049196;28;20431;-74
2022/12/20 11:25:35;;;;;;;9.38;5.10;;;;;;;9.49;100.00;100821.50;5046907;28;20029;-72
2022/12/20 11:28:17;;;;;;;12.65;5.28;;;;;;;9.48;100.00;100824.97;5040372;28;20026;-73
2022/12/20 11:31:08;;;;;;;10.45;5.13;;;;;;;9.51;100.00;100822.41;5070668;28;20025;-73
2022/12/20 11:34:12;;;;;;;11.70;5.93;;;;;;;9.51;100.00;100828.56;5045764;28;20036;-73
2022/12/20 11:37:16;;;;;;;13.57;6.33;;;;;;;9.54;100.00;100822.50;5011640;28;20045;-73